Time;durP1;ratioP1;P1;durP2;ratioP2;P2;SDS_P1;SDS_P2;PMS_P1;PMS_P2;Temp;Humidity;BMP_temperature;BMP_pressure;BME280_temperature;BME280_humidity;BME280_pressure;Samples;Min_cycle;Max_cycle;Signal;HPM_P1;HPM_P2
2023/02/20 00:02:35;;;;;;;;;;;;;;;;;;;;;
2023/02/20 00:05:32;;;;;;;7.20;1.70;;;;;;;;;;106519;1281;22658;-81
2023/02/20 00:08:26;;;;;;;9.30;1.50;;;;;;;;;;106719;1281;25409;-81
2023/02/20 00:11:15;;;;;;;9.00;1.60;;;;;;;;;;106556;1258;22544;-78
2023/02/20 00:13:50;;;;;;;8.90;1.90;;;;;;;;;;106482;1280;22581;-83
2023/02/20 00:17:18;;;;;;;8.00;1.60;;;;;;;;;;106507;1280;24621;-80
2023/02/20 00:19:55;;;;;;;;;;;;;;;;;;;;;
2023/02/20 00:22:29;;;;;;;7.80;1.60;;;;;;;;;;106747;1273;22542;-78
2023/02/20 00:25:11;;;;;;;8.70;1.60;;;;;;;;;;106414;1280;24220;-77
2023/02/20 00:28:05;;;;;;;8.30;1.90;;;;;;;;;;106371;1280;22990;-77
2023/02/20 00:30:41;;;;;;;7.60;1.30;;;;;;;;;;106541;1280;22543;-81
2023/02/20 00:33:40;;;;;;;;;;;;;;;;;;;;;
2023/02/20 00:36:23;;;;;;;9.90;1.70;;;;;;;;;;106702;1277;24279;-82
2023/02/20 00:38:53;;;;;;;8.40;1.50;;;;;;;;;;106877;1270;25594;-84
2023/02/20 00:41:57;;;;;;;;;;;;;;;;;;;;;
2023/02/20 00:45:19;;;;;;;7.90;1.50;;;;;;;;;;107113;1275;26499;-77
2023/02/20 00:47:50;;;;;;;9.30;1.80;;;;;;;;;;107049;1275;24239;-77
2023/02/20 00:51:27;;;;;;;;;;;;;;;;;;;;;
2023/02/20 00:54:23;;;;;;;8.20;1.70;;;;;;;;;;106790;1262;22565;-78
2023/02/20 00:57:15;;;;;;;8.90;1.80;;;;;;;;;;106769;1280;22773;-82
2023/02/20 01:00:10;;;;;;;;;;;;;;;;;;;;;
2023/02/20 01:03:16;;;;;;;;;;;;;;;;;;;;;
2023/02/20 01:06:25;;;;;;;8.10;1.20;;;;;;;;;;106540;1281;22545;-79
2023/02/20 01:09:40;;;;;;;7.40;1.80;;;;;;;;;;106493;1281;22532;-83
2023/02/20 01:12:21;;;;;;;7.50;1.90;;;;;;;;;;106454;1259;22545;-78
2023/02/20 01:14:53;;;;;;;7.70;1.20;;;;;;;;;;106449;1281;23006;-81
2023/02/20 01:18:28;;;;;;;5.20;1.20;;;;;;;;;;106494;1281;22518;-83
2023/02/20 01:21:23;;;;;;;;;;;;;;;;;;;;;
2023/02/20 01:24:44;;;;;;;;;;;;;;;;;;;;;
2023/02/20 01:27:36;;;;;;;6.90;1.20;;;;;;;;;;106533;1281;22604;-83
2023/02/20 01:30:49;;;;;;;;;;;;;;;;;;;;;
2023/02/20 01:33:58;;;;;;;;;;;;;;;;;;;;;
2023/02/20 01:37:18;;;;;;;;;;;;;;;;;;;;;
2023/02/20 01:40:49;;;;;;;7.40;1.30;;;;;;;;;;106844;1276;25439;-80
2023/02/20 01:44:16;;;;;;;;;;;;;;;;;;;;;
2023/02/20 01:50:25;;;;;;;5.90;1.30;;;;;;;;;;106472;1282;26444;-82
2023/02/20 01:53:35;;;;;;;8.90;1.70;;;;;;;;;;106519;1259;22586;-84
2023/02/20 01:56:09;;;;;;;8.30;1.90;;;;;;;;;;106416;1283;22560;-81
2023/02/20 01:59:12;;;;;;;;;;;;;;;;;;;;;
2023/02/20 02:05:15;;;;;;;4.90;1.10;;;;;;;;;;106428;1265;22536;-83
2023/02/20 02:08:04;;;;;;;6.10;1.20;;;;;;;;;;106390;1283;22559;-78
2023/02/20 02:10:50;;;;;;;5.00;1.10;;;;;;;;;;106401;1282;24216;-78
2023/02/20 02:14:43;;;;;;;6.30;1.30;;;;;;;;;;106447;1261;22590;-78
2023/02/20 02:17:25;;;;;;;6.00;1.50;;;;;;;;;;106498;1283;22540;-80
2023/02/20 02:20:49;;;;;;;7.40;1.70;;;;;;;;;;106529;1282;24881;-81
2023/02/20 02:24:15;;;;;;;;;;;;;;;;;;;;;
2023/02/20 02:27:52;;;;;;;;;;;;;;;;;;;;;
2023/02/20 02:31:48;;;;;;;7.80;1.60;;;;;;;;;;106888;1278;22536;-82
2023/02/20 02:35:22;;;;;;;9.20;1.40;;;;;;;;;;106832;1278;22529;-83
2023/02/20 02:38:09;;;;;;;6.00;1.60;;;;;;;;;;106867;1259;22536;-81
2023/02/20 02:41:01;;;;;;;6.40;1.70;;;;;;;;;;106703;1278;24486;-78
2023/02/20 02:43:50;;;;;;;;;;;;;;;;;;;;;
2023/02/20 02:47:25;;;;;;;7.80;1.80;;;;;;;;;;106871;1256;22619;-81
2023/02/20 02:50:47;;;;;;;9.20;1.50;;;;;;;;;;106823;1278;22543;-79
2023/02/20 02:53:09;;;;;;;6.30;1.10;;;;;;;;;;106836;1278;25304;-78
2023/02/20 02:56:20;;;;;;;8.80;1.90;;;;;;;;;;106773;1278;25370;-84
2023/02/20 03:00:00;;;;;;;6.20;1.50;;;;;;;;;;106841;1270;25294;-77
2023/02/20 03:02:41;;;;;;;6.60;1.80;;;;;;;;;;106793;1278;24226;-83
2023/02/20 03:06:34;;;;;;;8.80;2.00;;;;;;;;;;106857;1261;22663;-81
2023/02/20 03:09:27;;;;;;;;;;;;;;;;;;;;;
2023/02/20 03:12:43;;;;;;;6.10;1.60;;;;;;;;;;106069;1289;22545;-80
2023/02/20 03:15:44;;;;;;;8.10;1.70;;;;;;;;;;106015;1279;22676;-80
2023/02/20 03:19:25;;;;;;;6.50;1.60;;;;;;;;;;105964;1284;25299;-80
2023/02/20 03:22:37;;;;;;;7.10;1.90;;;;;;;;;;105986;1290;22562;-82
2023/02/20 03:25:23;;;;;;;7.40;1.80;;;;;;;;;;106017;1289;25706;-82
2023/02/20 03:28:59;;;;;;;6.70;1.70;;;;;;;;;;105992;1271;22828;-80
2023/02/20 03:44:17;;;;;;;8.00;1.90;;;;;;;;;;105679;1293;25488;-80
2023/02/20 03:47:23;;;;;;;6.50;1.90;;;;;;;;;;106026;1282;25443;-81
2023/02/20 03:50:19;;;;;;;;;;;;;;;;;;;;;
2023/02/20 03:53:36;;;;;;;5.10;1.90;;;;;;;;;;106435;1283;25290;-78
2023/02/20 03:56:38;;;;;;;8.00;2.00;;;;;;;;;;106410;1283;24354;-83
2023/02/20 04:00:22;;;;;;;9.20;2.80;;;;;;;;;;106425;1265;22714;-80
2023/02/20 04:02:41;;;;;;;8.30;2.40;;;;;;;;;;106377;1282;22537;-78
2023/02/20 04:05:38;;;;;;;7.50;1.90;;;;;;;;;;106472;1275;22536;-83
2023/02/20 04:08:37;;;;;;;7.00;2.10;;;;;;;;;;106489;1261;25339;-81
2023/02/20 04:11:21;;;;;;;9.90;2.60;;;;;;;;;;106463;1278;22553;-80
2023/02/20 04:14:54;;;;;;;9.20;2.40;;;;;;;;;;106736;1278;25369;-78
2023/02/20 04:17:31;;;;;;;;;;;;;;;;;;;;;
2023/02/20 04:20:18;;;;;;;4.70;1.30;;;;;;;;;;106695;1273;24745;-81
2023/02/20 04:23:34;;;;;;;5.90;1.90;;;;;;;;;;106755;1278;25271;-80
2023/02/20 04:27:06;;;;;;;5.50;1.30;;;;;;;;;;106891;1278;23310;-77
2023/02/20 04:29:14;;;;;;;6.60;1.30;;;;;;;;;;106823;1255;22536;-80
2023/02/20 04:32:13;;;;;;;6.40;1.40;;;;;;;;;;106605;1278;22771;-81
2023/02/20 04:35:27;;;;;;;;;;;;;;;;;;;;;
2023/02/20 04:38:25;;;;;;;4.80;1.40;;;;;;;;;;106733;1278;25294;-78
2023/02/20 04:41:10;;;;;;;5.00;1.20;;;;;;;;;;106850;1259;24206;-82
2023/02/20 04:47:37;;;;;;;;;;;;;;;;;;;;;
2023/02/20 04:50:36;;;;;;;4.80;1.60;;;;;;;;;;106879;1262;25359;-80
2023/02/20 04:53:23;;;;;;;;;;;;;;;;;;;;;
2023/02/20 04:55:56;;;;;;;8.20;1.90;;;;;;;;;;106706;1278;23880;-82
2023/02/20 04:58:38;;;;;;;;;;;;;;;;;;;;;
2023/02/20 05:04:41;;;;;;;7.70;1.20;;;;;;;;;;106749;1278;25236;-81
2023/02/20 05:07:44;;;;;;;;;;;;;;;;;;;;;
2023/02/20 05:11:05;;;;;;;4.40;1.40;;;;;;;;;;106849;1278;24236;-80
2023/02/20 05:14:43;;;;;;;5.10;1.60;;;;;;;;;;106867;1278;25331;-79
2023/02/20 05:17:15;;;;;;;5.00;1.50;;;;;;;;;;106762;1278;22649;-81
2023/02/20 05:19:49;;;;;;;6.10;1.50;;;;;;;;;;106816;1257;22540;-83
2023/02/20 05:22:41;;;;;;;5.60;1.70;;;;;;;;;;106762;1278;22547;-83
2023/02/20 05:25:26;;;;;;;4.80;1.30;;;;;;;;;;106837;1278;22517;-77
2023/02/20 05:27:55;;;;;;;5.20;1.30;;;;;;;;;;106683;1278;24465;-83
2023/02/20 05:30:27;;;;;;;5.80;1.90;;;;;;;;;;106751;1257;22555;-80
2023/02/20 05:33:15;;;;;;;5.60;1.70;;;;;;;;;;106777;1280;22593;-80
2023/02/20 05:36:02;;;;;;;7.90;1.80;;;;;;;;;;106589;1280;24223;-78
2023/02/20 05:38:47;;;;;;;5.60;1.40;;;;;;;;;;106590;1279;22488;-81
2023/02/20 05:41:56;;;;;;;;;;;;;;;;;;;;;
2023/02/20 05:44:48;;;;;;;5.50;1.60;;;;;;;;;;106447;1278;24217;-84
2023/02/20 05:47:40;;;;;;;5.10;1.70;;;;;;;;;;106412;1284;25230;-82
2023/02/20 05:51:19;;;;;;;5.60;1.60;;;;;;;;;;106437;1262;22545;-82
2023/02/20 05:53:46;;;;;;;5.20;1.60;;;;;;;;;;106364;1284;24387;-81
2023/02/20 05:56:43;;;;;;;6.70;1.80;;;;;;;;;;106398;1284;24215;-77
2023/02/20 06:00:12;;;;;;;5.40;1.60;;;;;;;;;;106179;1283;22539;-78
2023/02/20 06:02:58;;;;;;;6.40;1.90;;;;;;;;;;106301;1265;22539;-81
2023/02/20 06:06:02;;;;;;;6.10;1.90;;;;;;;;;;106392;1280;22543;-79
2023/02/20 06:08:42;;;;;;;5.90;1.80;;;;;;;;;;106439;1281;25340;-80
2023/02/20 06:12:01;;;;;;;8.50;2.20;;;;;;;;;;106328;1268;22546;-76
2023/02/20 06:14:27;;;;;;;7.50;2.40;;;;;;;;;;106124;1286;25303;-77
2023/02/20 06:17:11;;;;;;;7.40;2.00;;;;;;;;;;106150;1286;25357;-81
2023/02/20 06:19:50;;;;;;;6.60;2.20;;;;;;;;;;106590;1284;22547;-77
2023/02/20 06:22:39;;;;;;;6.50;2.00;;;;;;;;;;106803;1274;22502;-77
2023/02/20 06:25:45;;;;;;;7.40;2.50;;;;;;;;;;106657;1277;25346;-78
2023/02/20 06:28:35;;;;;;;6.50;2.30;;;;;;;;;;106835;1279;25346;-80
2023/02/20 06:31:28;;;;;;;6.10;2.00;;;;;;;;;;106732;1256;22537;-81
2023/02/20 06:34:53;;;;;;;8.60;2.40;;;;;;;;;;106853;1277;24196;-77
2023/02/20 06:37:06;;;;;;;10.50;3.00;;;;;;;;;;106826;1270;22543;-77
2023/02/20 06:39:46;;;;;;;6.80;2.60;;;;;;;;;;107030;1276;25487;-79
2023/02/20 06:42:21;;;;;;;8.40;2.70;;;;;;;;;;106941;1262;22574;-80
2023/02/20 06:44:56;;;;;;;8.40;2.20;;;;;;;;;;106818;1277;24348;-80
2023/02/20 06:47:33;;;;;;;8.00;2.30;;;;;;;;;;106851;1277;23917;-79
2023/02/20 06:50:28;;;;;;;6.50;2.50;;;;;;;;;;106918;1272;22129;-77
2023/02/20 06:53:17;;;;;;;12.50;2.80;;;;;;;;;;106971;1266;25367;-80
2023/02/20 06:56:02;;;;;;;8.20;2.50;;;;;;;;;;106833;1277;22587;-77
2023/02/20 06:58:44;;;;;;;7.30;2.90;;;;;;;;;;106547;1276;22576;-78
2023/02/20 07:01:34;;;;;;;8.60;2.40;;;;;;;;;;106762;1277;24200;-77
2023/02/20 07:04:06;;;;;;;9.10;2.90;;;;;;;;;;107114;1259;22533;-76
2023/02/20 07:06:48;;;;;;;9.00;3.10;;;;;;;;;;106980;1277;24230;-76
2023/02/20 07:09:20;;;;;;;7.20;2.70;;;;;;;;;;106827;1277;24215;-79
2023/02/20 07:11:53;;;;;;;8.30;3.10;;;;;;;;;;106888;1277;24213;-76
2023/02/20 07:21:31;;;;;;;7.60;2.70;;;;;;;;;;103746;1295;545001;-78
2023/02/20 07:23:58;;;;;;;8.00;2.70;;;;;;;;;;106534;1281;24200;-79
2023/02/20 07:26:39;;;;;;;7.10;2.70;;;;;;;;;;106764;1281;22523;-79
2023/02/20 07:29:07;;;;;;;9.60;3.30;;;;;;;;;;106745;1281;24372;-78
2023/02/20 07:31:37;;;;;;;8.00;2.80;;;;;;;;;;106669;1266;22637;-75
2023/02/20 07:34:19;;;;;;;6.80;2.70;;;;;;;;;;102803;1279;5394699;-81
2023/02/20 07:36:54;;;;;;;8.70;2.70;;;;;;;;;;106617;1279;25322;-82
2023/02/20 07:39:25;;;;;;;6.50;2.70;;;;;;;;;;106846;1279;22532;-78
2023/02/20 07:42:00;;;;;;;7.40;2.80;;;;;;;;;;107171;1264;22597;-76
2023/02/20 07:44:49;;;;;;;8.50;3.30;;;;;;;;;;107246;1274;25348;-77
2023/02/20 07:47:22;;;;;;;9.50;2.90;;;;;;;;;;107047;1274;23908;-78
2023/02/20 07:50:11;;;;;;;7.70;2.90;;;;;;;;;;107054;1274;25280;-75
2023/02/20 07:52:50;;;;;;;7.90;3.00;;;;;;;;;;107111;1256;25281;-81
2023/02/20 07:55:17;;;;;;;7.50;2.90;;;;;;;;;;107207;1270;25274;-79
2023/02/20 07:58:05;;;;;;;7.50;2.80;;;;;;;;;;107173;1274;22575;-80
2023/02/20 08:01:26;;;;;;;9.60;3.00;;;;;;;;;;107213;1274;22526;-77
2023/02/20 08:03:33;;;;;;;10.70;3.50;;;;;;;;;;107168;1259;22547;-76
2023/02/20 08:06:12;;;;;;;9.60;3.40;;;;;;;;;;107108;1274;22527;-81
2023/02/20 08:09:03;;;;;;;9.20;2.90;;;;;;;;;;107167;1274;23905;-77
2023/02/20 08:11:38;;;;;;;12.40;2.80;;;;;;;;;;107132;1257;22628;-79
2023/02/20 08:14:12;;;;;;;9.20;2.80;;;;;;;;;;107163;1274;22528;-82
2023/02/20 08:16:53;;;;;;;8.90;3.00;;;;;;;;;;106975;1272;23122;-78
2023/02/20 08:19:23;;;;;;;8.50;3.20;;;;;;;;;;107130;1274;23132;-78
2023/02/20 08:21:53;;;;;;;7.80;3.00;;;;;;;;;;107008;1257;22549;-81
2023/02/20 08:24:20;;;;;;;8.10;3.30;;;;;;;;;;106922;1274;25453;-77
2023/02/20 08:26:49;;;;;;;8.10;2.90;;;;;;;;;;107239;1267;25291;-79
2023/02/20 08:29:24;;;;;;;8.60;3.00;;;;;;;;;;107284;1272;22543;-80
2023/02/20 08:31:53;;;;;;;8.50;3.20;;;;;;;;;;107163;1257;25278;-79
2023/02/20 08:34:20;;;;;;;10.80;3.20;;;;;;;;;;106951;1275;23901;-78
2023/02/20 08:36:52;;;;;;;8.70;3.00;;;;;;;;;;107159;1275;25287;-77
2023/02/20 08:39:32;;;;;;;8.80;3.10;;;;;;;;;;107065;1275;22530;-80
2023/02/20 08:42:16;;;;;;;9.50;3.50;;;;;;;;;;107100;1254;22583;-82
2023/02/20 08:45:09;;;;;;;8.80;3.20;;;;;;;;;;107396;1275;24227;-85
2023/02/20 08:47:41;;;;;;;8.70;2.70;;;;;;;;;;107447;1276;25348;-86
2023/02/20 08:50:29;;;;;;;8.50;2.50;;;;;;;;;;107254;1262;23396;-85
2023/02/20 08:53:22;;;;;;;13.80;4.20;;;;;;;;;;107330;1269;24247;-82
2023/02/20 08:56:03;;;;;;;12.90;4.40;;;;;;;;;;107370;1270;22529;-82
2023/02/20 08:58:46;;;;;;;11.80;4.30;;;;;;;;;;107308;1270;22549;-88
2023/02/20 09:01:25;;;;;;;11.80;4.60;;;;;;;;;;107225;1267;22508;-82
2023/02/20 09:04:04;;;;;;;12.30;4.80;;;;;;;;;;107152;1266;23871;-78
2023/02/20 09:06:34;;;;;;;16.50;6.10;;;;;;;;;;107234;1272;22533;-81
2023/02/20 09:09:06;;;;;;;10.30;4.00;;;;;;;;;;107163;1275;22524;-79
2023/02/20 09:11:35;;;;;;;9.20;3.10;;;;;;;;;;107103;1275;22541;-82
2023/02/20 09:14:02;;;;;;;6.90;2.60;;;;;;;;;;106904;1275;26484;-82
2023/02/20 09:16:42;;;;;;;8.40;2.40;;;;;;;;;;107001;1275;22573;-78
2023/02/20 09:19:14;;;;;;;7.40;2.10;;;;;;;;;;107292;1275;22552;-77
2023/02/20 09:21:46;;;;;;;6.30;2.20;;;;;;;;;;107256;1275;23893;-76
2023/02/20 09:24:18;;;;;;;6.50;2.00;;;;;;;;;;107173;1275;22534;-84
2023/02/20 09:26:53;;;;;;;5.00;1.80;;;;;;;;;;107064;1275;22521;-80
2023/02/20 09:29:20;;;;;;;5.00;1.80;;;;;;;;;;107155;1275;25363;-76
2023/02/20 09:31:52;;;;;;;6.90;2.10;;;;;;;;;;107190;1275;24190;-81
2023/02/20 09:34:25;;;;;;;6.10;2.10;;;;;;;;;;106963;1257;25408;-78
2023/02/20 09:37:32;;;;;;;7.80;2.20;;;;;;;;;;107079;1272;24365;-81
2023/02/20 09:40:08;;;;;;;5.80;1.80;;;;;;;;;;107098;1275;22636;-81
2023/02/20 09:42:43;;;;;;;5.70;1.90;;;;;;;;;;106961;1275;22544;-76
2023/02/20 09:45:40;;;;;;;8.70;2.60;;;;;;;;;;107074;1266;23305;-79
2023/02/20 09:48:11;;;;;;;9.30;3.10;;;;;;;;;;106976;1275;25463;-82
2023/02/20 09:50:52;;;;;;;8.80;2.60;;;;;;;;;;107089;1275;22610;-83
2023/02/20 09:53:55;;;;;;;6.30;2.30;;;;;;;;;;107091;1254;25358;-81
2023/02/20 09:56:34;;;;;;;5.70;1.60;;;;;;;;;;107085;1275;25411;-79
2023/02/20 09:59:17;;;;;;;;;;;;;;;;;;;;;
2023/02/20 10:02:07;;;;;;;4.40;1.40;;;;;;;;;;107127;1275;25372;-81
2023/02/20 10:04:44;;;;;;;6.20;2.00;;;;;;;;;;107106;1275;24166;-81
2023/02/20 10:07:15;;;;;;;6.20;2.00;;;;;;;;;;106976;1275;25595;-82
2023/02/20 10:09:47;;;;;;;10.90;2.90;;;;;;;;;;106983;1275;24285;-80
2023/02/20 10:12:46;;;;;;;6.90;3.00;;;;;;;;;;107178;1275;22539;-78
2023/02/20 10:15:32;;;;;;;7.90;2.90;;;;;;;;;;107170;1260;24213;-84
2023/02/20 10:18:32;;;;;;;14.00;5.10;;;;;;;;;;106942;1275;24360;-78
2023/02/20 10:21:38;;;;;;;10.20;4.10;;;;;;;;;;106576;1281;22612;-76
2023/02/20 10:24:13;;;;;;;7.00;2.70;;;;;;;;;;106571;1259;22541;-82
2023/02/20 10:26:45;;;;;;;11.00;4.30;;;;;;;;;;106430;1281;22594;-77
2023/02/20 10:29:26;;;;;;;8.30;2.10;;;;;;;;;;106365;1281;24214;-81
2023/02/20 10:32:03;;;;;;;6.40;1.40;;;;;;;;;;106413;1281;22663;-80
2023/02/20 10:34:39;;;;;;;4.90;1.60;;;;;;;;;;106545;1273;24363;-80
2023/02/20 10:37:41;;;;;;;8.70;2.00;;;;;;;;;;106462;1281;22536;-83
2023/02/20 10:40:16;;;;;;;7.70;1.90;;;;;;;;;;106468;1281;22568;-83
2023/02/20 10:43:12;;;;;;;5.40;1.50;;;;;;;;;;106494;1281;22543;-77
2023/02/20 10:45:38;;;;;;;9.30;1.80;;;;;;;;;;106486;1263;24198;-77
2023/02/20 10:48:08;;;;;;;5.60;1.20;;;;;;;;;;106637;1281;25234;-80
2023/02/20 10:50:56;;;;;;;5.80;1.30;;;;;;;;;;106419;1281;22547;-82
2023/02/20 10:53:51;;;;;;;8.90;1.60;;;;;;;;;;106661;1281;22552;-84
2023/02/20 10:56:24;;;;;;;5.90;1.60;;;;;;;;;;106522;1274;25582;-84
2023/02/20 10:59:03;;;;;;;6.10;1.50;;;;;;;;;;107138;1275;22983;-80
2023/02/20 11:01:31;;;;;;;5.90;1.60;;;;;;;;;;107016;1275;22655;-79
2023/02/20 11:04:09;;;;;;;7.20;2.00;;;;;;;;;;107141;1274;22537;-79
2023/02/20 11:06:52;;;;;;;9.20;2.60;;;;;;;;;;107037;1266;22583;-84
2023/02/20 11:09:22;;;;;;;10.50;3.80;;;;;;;;;;106951;1275;25353;-80
2023/02/20 11:11:48;;;;;;;9.60;3.00;;;;;;;;;;107108;1275;22533;-79
2023/02/20 11:15:03;;;;;;;7.60;2.50;;;;;;;;;;107017;1275;22589;-83
2023/02/20 11:17:31;;;;;;;6.30;1.40;;;;;;;;;;107051;1267;24187;-82
2023/02/20 11:20:21;;;;;;;7.60;1.40;;;;;;;;;;107156;1275;25529;-78
2023/02/20 11:22:51;;;;;;;5.10;1.40;;;;;;;;;;106959;1272;22527;-84
2023/02/20 11:25:26;;;;;;;6.50;1.50;;;;;;;;;;107008;1275;25288;-80
2023/02/20 11:28:09;;;;;;;6.20;1.80;;;;;;;;;;106968;1264;22540;-77
2023/02/20 11:30:42;;;;;;;6.50;1.70;;;;;;;;;;106947;1275;22800;-84
2023/02/20 11:33:32;;;;;;;5.10;1.40;;;;;;;;;;107129;1275;22535;-80
2023/02/20 11:36:37;;;;;;;6.20;1.40;;;;;;;;;;107345;1275;22552;-77
2023/02/20 11:39:14;;;;;;;6.80;1.60;;;;;;;;;;107055;1275;22977;-81
2023/02/20 11:41:46;;;;;;;4.60;1.60;;;;;;;;;;106893;1275;23904;-78
2023/02/20 11:44:19;;;;;;;6.90;2.00;;;;;;;;;;106921;1275;22530;-80
2023/02/20 11:47:18;;;;;;;7.60;2.10;;;;;;;;;;107165;1275;25300;-78
2023/02/20 11:49:50;;;;;;;6.30;1.80;;;;;;;;;;107141;1275;24326;-78
2023/02/20 11:52:23;;;;;;;7.50;2.20;;;;;;;;;;107134;1275;22626;-83
2023/02/20 11:55:20;;;;;;;7.00;2.20;;;;;;;;;;106869;1267;22527;-77
2023/02/20 11:58:12;;;;;;;8.20;2.40;;;;;;;;;;107041;1266;22540;-79
2023/02/20 12:00:46;;;;;;;9.20;2.20;;;;;;;;;;106955;1275;25021;-82
2023/02/20 12:03:17;;;;;;;10.00;2.90;;;;;;;;;;107102;1275;23876;-82
2023/02/20 12:05:45;;;;;;;10.10;2.50;;;;;;;;;;107129;1275;25281;-81
2023/02/20 12:08:26;;;;;;;6.00;2.10;;;;;;;;;;107134;1257;22622;-79
2023/02/20 12:11:02;;;;;;;5.60;1.90;;;;;;;;;;107038;1275;24051;-79
2023/02/20 12:13:34;;;;;;;8.30;2.10;;;;;;;;;;106958;1275;22542;-77
2023/02/20 12:16:11;;;;;;;7.70;2.60;;;;;;;;;;106915;1275;22566;-77
2023/02/20 12:18:43;;;;;;;7.60;2.20;;;;;;;;;;107054;1266;22537;-82
2023/02/20 12:21:25;;;;;;;8.70;3.10;;;;;;;;;;107170;1275;22546;-76
2023/02/20 12:23:58;;;;;;;6.80;2.70;;;;;;;;;;107097;1275;23902;-77
2023/02/20 12:26:31;;;;;;;7.80;2.70;;;;;;;;;;107106;1275;22991;-76
2023/02/20 12:29:42;;;;;;;6.70;2.40;;;;;;;;;;107336;1266;22572;-81
2023/02/20 12:32:32;;;;;;;10.80;2.70;;;;;;;;;;107324;1269;24350;-80
2023/02/20 12:35:26;;;;;;;6.50;2.10;;;;;;;;;;107140;1276;22621;-80
2023/02/20 12:37:57;;;;;;;8.70;2.80;;;;;;;;;;107341;1257;22585;-79
2023/02/20 12:40:31;;;;;;;10.00;2.80;;;;;;;;;;107307;1267;22531;-80
2023/02/20 12:43:41;;;;;;;5.70;2.10;;;;;;;;;;107426;1273;24186;-82
2023/02/20 12:46:30;;;;;;;11.90;3.90;;;;;;;;;;107220;1275;22645;-79
2023/02/20 12:49:05;;;;;;;10.50;3.50;;;;;;;;;;107375;1258;22525;-81
2023/02/20 12:55:19;;;;;;;7.90;2.40;;;;;;;;;;107220;1275;25042;-88
2023/02/20 12:58:24;;;;;;;;;;;;;;;;;;;;;
2023/02/20 13:01:08;;;;;;;7.10;2.10;;;;;;;;;;106806;1281;23972;-84
2023/02/20 13:03:43;;;;;;;9.30;2.40;;;;;;;;;;106578;1281;24236;-82
2023/02/20 13:06:12;;;;;;;7.90;2.30;;;;;;;;;;106936;1273;22728;-79
2023/02/20 13:09:14;;;;;;;7.70;2.40;;;;;;;;;;106619;1262;22540;-83
2023/02/20 13:11:50;;;;;;;8.10;2.50;;;;;;;;;;107067;1274;22790;-82
2023/02/20 13:14:46;;;;;;;6.50;1.80;;;;;;;;;;107198;1274;22562;-80
2023/02/20 13:17:23;;;;;;;6.00;1.70;;;;;;;;;;106749;1276;24368;-81
2023/02/20 13:20:18;;;;;;;5.20;1.40;;;;;;;;;;106985;1264;22766;-83
2023/02/20 13:22:58;;;;;;;6.10;1.40;;;;;;;;;;106694;1281;24250;-82
2023/02/20 13:25:41;;;;;;;5.30;1.60;;;;;;;;;;106858;1273;22547;-82
2023/02/20 13:28:23;;;;;;;10.00;3.10;;;;;;;;;;106892;1267;22534;-78
2023/02/20 13:31:10;;;;;;;7.90;2.40;;;;;;;;;;107286;1269;23329;-79
2023/02/20 13:33:42;;;;;;;9.10;2.70;;;;;;;;;;107201;1271;22542;-80
2023/02/20 13:36:36;;;;;;;8.40;2.10;;;;;;;;;;107245;1267;24323;-87
2023/02/20 13:39:38;;;;;;;7.10;1.70;;;;;;;;;;107312;1267;22533;-81
2023/02/20 13:42:46;;;;;;;5.40;1.40;;;;;;;;;;107473;1272;24199;-83
2023/02/20 13:45:37;;;;;;;5.40;1.50;;;;;;;;;;106971;1277;24490;-79
2023/02/20 13:48:19;;;;;;;7.30;1.70;;;;;;;;;;109948;1276;22229;-80
2023/02/20 13:50:49;;;;;;;7.90;2.40;;;;;;;;;;109910;1261;22173;-80
2023/02/20 13:53:16;;;;;;;6.80;1.70;;;;;;;;;;109938;1283;22393;-81
2023/02/20 13:55:43;;;;;;;6.10;1.90;;;;;;;;;;110005;1282;22046;-79
2023/02/20 13:58:17;;;;;;;6.30;1.50;;;;;;;;;;109924;1282;22413;-82
2023/02/20 14:01:07;;;;;;;7.40;1.90;;;;;;;;;;110048;1263;23080;-82
2023/02/20 14:03:37;;;;;;;5.60;1.40;;;;;;;;;;110035;1275;22257;-82
2023/02/20 14:06:10;;;;;;;5.60;1.40;;;;;;;;;;110085;1273;23260;-83
2023/02/20 14:08:47;;;;;;;5.10;1.50;;;;;;;;;;110006;1276;22171;-80
2023/02/20 14:11:26;;;;;;;5.80;1.60;;;;;;;;;;110068;1262;23019;-83
2023/02/20 14:13:57;;;;;;;4.20;1.20;;;;;;;;;;110016;1281;22193;-80
2023/02/20 14:16:27;;;;;;;8.60;1.90;;;;;;;;;;110344;1276;22147;-80
2023/02/20 14:18:58;;;;;;;7.80;2.30;;;;;;;;;;110614;1275;22020;-80
2023/02/20 14:21:25;;;;;;;8.30;2.90;;;;;;;;;;110615;1254;22227;-82
2023/02/20 14:24:01;;;;;;;10.70;4.60;;;;;;;;;;110616;1267;22741;-82
2023/02/20 14:26:30;;;;;;;9.20;2.30;;;;;;;;;;110559;1275;22167;-82
2023/02/20 14:29:17;;;;;;;18.00;8.40;;;;;;;;;;110605;1275;22239;-83
2023/02/20 14:32:05;;;;;;;13.20;4.40;;;;;;;;;;110654;1256;22208;-82
2023/02/20 14:35:00;;;;;;;7.20;1.50;;;;;;;;;;110567;1275;22192;-82
2023/02/20 14:37:38;;;;;;;6.00;1.40;;;;;;;;;;110523;1269;22802;-82
2023/02/20 14:40:24;;;;;;;9.50;1.90;;;;;;;;;;110623;1253;22174;-80
2023/02/20 14:42:51;;;;;;;13.00;3.30;;;;;;;;;;110551;1275;22207;-79
2023/02/20 14:45:45;;;;;;;12.50;2.20;;;;;;;;;;110580;1275;22149;-79
2023/02/20 14:48:32;;;;;;;14.80;2.80;;;;;;;;;;110579;1275;22313;-78
2023/02/20 14:51:23;;;;;;;22.40;3.50;;;;;;;;;;110639;1256;22285;-80
2023/02/20 14:54:00;;;;;;;9.90;2.20;;;;;;;;;;110535;1275;22813;-84
2023/02/20 14:56:27;;;;;;;5.20;1.50;;;;;;;;;;110574;1275;22127;-81
2023/02/20 14:58:59;;;;;;;13.00;2.40;;;;;;;;;;110542;1275;22865;-82
2023/02/20 15:01:40;;;;;;;10.70;2.30;;;;;;;;;;110609;1254;22336;-83
2023/02/20 15:04:14;;;;;;;15.10;2.80;;;;;;;;;;110617;1275;22189;-79
2023/02/20 15:06:58;;;;;;;11.80;2.10;;;;;;;;;;110620;1275;22140;-82
2023/02/20 15:09:36;;;;;;;12.10;2.00;;;;;;;;;;110591;1275;22796;-80
2023/02/20 15:12:20;;;;;;;11.10;2.50;;;;;;;;;;110661;1253;22928;-81
2023/02/20 15:15:16;;;;;;;13.80;3.30;;;;;;;;;;110627;1275;22217;-81
2023/02/20 15:17:46;;;;;;;9.40;2.10;;;;;;;;;;110554;1275;22123;-81
2023/02/20 15:20:56;;;;;;;11.70;2.00;;;;;;;;;;110551;1275;22332;-82
2023/02/20 15:23:45;;;;;;;10.50;2.40;;;;;;;;;;110917;1256;22185;-79
2023/02/20 15:26:42;;;;;;;10.10;2.40;;;;;;;;;;110601;1275;22150;-81
2023/02/20 15:29:46;;;;;;;12.80;2.90;;;;;;;;;;110546;1275;22832;-80
2023/02/20 15:32:25;;;;;;;13.10;3.00;;;;;;;;;;110657;1253;22143;-81
2023/02/20 15:35:17;;;;;;;13.30;3.40;;;;;;;;;;110509;1270;22238;-81
2023/02/20 15:37:43;;;;;;;10.50;3.00;;;;;;;;;;110610;1276;22130;-79
2023/02/20 15:40:21;;;;;;;8.30;1.90;;;;;;;;;;110596;1276;22097;-77
2023/02/20 15:42:54;;;;;;;10.80;2.60;;;;;;;;;;110840;1256;23107;-76
2023/02/20 15:45:22;;;;;;;12.40;2.90;;;;;;;;;;110582;1275;22124;-78
2023/02/20 15:47:51;;;;;;;11.50;3.00;;;;;;;;;;110479;1275;22137;-77
2023/02/20 15:50:21;;;;;;;15.00;3.70;;;;;;;;;;110416;1276;22246;-78
2023/02/20 15:52:48;;;;;;;10.20;2.70;;;;;;;;;;110541;1255;22843;-78
2023/02/20 15:55:16;;;;;;;13.70;3.50;;;;;;;;;;110139;1278;22119;-78
2023/02/20 15:57:44;;;;;;;20.00;5.10;;;;;;;;;;110228;1278;22895;-79
2023/02/20 16:00:23;;;;;;;12.60;3.00;;;;;;;;;;110371;1278;22827;-79
2023/02/20 16:02:53;;;;;;;15.00;5.50;;;;;;;;;;110690;1257;22104;-78
2023/02/20 16:05:19;;;;;;;13.90;5.00;;;;;;;;;;110601;1275;21987;-77
2023/02/20 16:07:46;;;;;;;13.20;4.70;;;;;;;;;;110491;1275;22269;-77
2023/02/20 16:10:14;;;;;;;8.60;2.20;;;;;;;;;;110450;1276;22486;-78
2023/02/20 16:12:41;;;;;;;10.90;3.30;;;;;;;;;;110592;1257;22187;-78
2023/02/20 16:15:16;;;;;;;10.70;3.40;;;;;;;;;;110452;1272;22208;-78
2023/02/20 16:17:43;;;;;;;11.30;4.10;;;;;;;;;;110442;1276;22206;-78
2023/02/20 16:20:12;;;;;;;8.40;2.70;;;;;;;;;;110472;1276;22107;-78
2023/02/20 16:22:39;;;;;;;8.50;2.50;;;;;;;;;;110474;1253;22122;-77
2023/02/20 16:25:06;;;;;;;11.40;3.60;;;;;;;;;;110468;1276;22070;-78
2023/02/20 16:27:33;;;;;;;12.00;4.40;;;;;;;;;;110490;1276;22947;-77
2023/02/20 16:29:59;;;;;;;8.50;3.00;;;;;;;;;;110425;1275;22109;-77
2023/02/20 16:32:27;;;;;;;14.50;5.80;;;;;;;;;;110493;1276;23149;-78
2023/02/20 16:35:00;;;;;;;12.50;3.80;;;;;;;;;;110475;1254;21694;-78
2023/02/20 16:37:31;;;;;;;6.70;2.10;;;;;;;;;;110477;1276;22248;-77
2023/02/20 16:39:58;;;;;;;8.70;2.60;;;;;;;;;;110609;1276;22131;-82
2023/02/20 16:42:27;;;;;;;9.20;3.00;;;;;;;;;;110584;1276;22247;-80
2023/02/20 16:45:00;;;;;;;10.80;3.20;;;;;;;;;;110567;1257;22786;-81
2023/02/20 16:47:30;;;;;;;10.30;2.60;;;;;;;;;;110592;1276;22802;-78
2023/02/20 16:50:00;;;;;;;9.00;2.80;;;;;;;;;;110610;1276;22148;-81
2023/02/20 16:52:29;;;;;;;11.90;2.50;;;;;;;;;;110483;1276;22150;-78
2023/02/20 16:55:01;;;;;;;8.60;2.40;;;;;;;;;;110795;1259;22852;-79
2023/02/20 16:57:39;;;;;;;7.40;1.80;;;;;;;;;;110566;1276;22123;-79
2023/02/20 17:00:10;;;;;;;7.50;1.90;;;;;;;;;;110558;1276;22449;-78
2023/02/20 17:02:37;;;;;;;11.30;3.40;;;;;;;;;;110609;1276;22188;-79
2023/02/20 17:05:06;;;;;;;10.10;3.00;;;;;;;;;;110640;1257;22139;-79
2023/02/20 17:07:36;;;;;;;14.30;4.70;;;;;;;;;;110613;1276;22157;-80
2023/02/20 17:10:07;;;;;;;9.50;2.80;;;;;;;;;;110595;1276;22112;-79
2023/02/20 17:12:36;;;;;;;12.30;4.00;;;;;;;;;;110490;1276;22225;-79
2023/02/20 17:15:04;;;;;;;8.10;2.60;;;;;;;;;;110804;1253;22139;-78
2023/02/20 17:17:34;;;;;;;5.40;1.10;;;;;;;;;;110456;1276;22133;-78
2023/02/20 17:20:01;;;;;;;6.00;1.60;;;;;;;;;;110486;1276;22152;-77
2023/02/20 17:22:32;;;;;;;6.30;1.80;;;;;;;;;;110595;1276;22880;-78